sensor_id;sensor_type;location;lat;lon;timestamp;P1;durP1;ratioP1;P2;durP2;ratioP2
69414;SDS011;56608;43.530;-5.652;2022-10-16T00:00:07;6.20;;;2.50;;
69414;SDS011;56608;43.530;-5.652;2022-10-16T00:01:09;6.75;;;2.55;;
69414;SDS011;56608;43.530;-5.652;2022-10-16T00:02:12;5.20;;;2.40;;
69414;SDS011;56608;43.530;-5.652;2022-10-16T00:03:14;4.30;;;2.42;;
69414;SDS011;56608;43.530;-5.652;2022-10-16T00:04:15;4.30;;;1.95;;
69414;SDS011;56608;43.530;-5.652;2022-10-16T00:05:16;5.22;;;2.20;;
69414;SDS011;56608;43.530;-5.652;2022-10-16T00:06:18;6.32;;;2.20;;
69414;SDS011;56608;43.530;-5.652;2022-10-16T00:07:21;5.20;;;2.65;;
69414;SDS011;56608;43.530;-5.652;2022-10-16T00:08:22;5.40;;;2.50;;
69414;SDS011;56608;43.530;-5.652;2022-10-16T00:09:25;3.70;;;2.10;;
69414;SDS011;56608;43.530;-5.652;2022-10-16T00:10:27;4.65;;;2.22;;
69414;SDS011;56608;43.530;-5.652;2022-10-16T00:11:30;6.62;;;2.28;;
69414;SDS011;56608;43.530;-5.652;2022-10-16T00:12:37;7.80;;;2.40;;
69414;SDS011;56608;43.530;-5.652;2022-10-16T00:13:39;7.00;;;2.20;;
69414;SDS011;56608;43.530;-5.652;2022-10-16T00:14:44;4.50;;;2.30;;
69414;SDS011;56608;43.530;-5.652;2022-10-16T00:15:44;5.65;;;2.40;;
69414;SDS011;56608;43.530;-5.652;2022-10-16T00:16:47;5.30;;;2.30;;
69414;SDS011;56608;43.530;-5.652;2022-10-16T00:17:48;6.57;;;2.15;;
69414;SDS011;56608;43.530;-5.652;2022-10-16T00:18:49;5.37;;;2.50;;
69414;SDS011;56608;43.530;-5.652;2022-10-16T00:19:51;6.80;;;3.03;;
69414;SDS011;56608;43.530;-5.652;2022-10-16T00:20:55;6.20;;;2.40;;
69414;SDS011;56608;43.530;-5.652;2022-10-16T00:22:01;7.60;;;2.80;;
69414;SDS011;56608;43.530;-5.652;2022-10-16T00:23:03;3.50;;;2.40;;
69414;SDS011;56608;43.530;-5.652;2022-10-16T00:24:06;5.15;;;2.10;;
69414;SDS011;56608;43.530;-5.652;2022-10-16T00:25:09;8.10;;;2.40;;
69414;SDS011;56608;43.530;-5.652;2022-10-16T00:26:12;5.35;;;2.30;;
69414;SDS011;56608;43.530;-5.652;2022-10-16T00:27:15;3.80;;;2.15;;
69414;SDS011;56608;43.530;-5.652;2022-10-16T00:28:17;3.00;;;2.00;;
69414;SDS011;56608;43.530;-5.652;2022-10-16T00:29:19;5.80;;;2.42;;
69414;SDS011;56608;43.530;-5.652;2022-10-16T00:30:20;5.93;;;2.22;;
69414;SDS011;56608;43.530;-5.652;2022-10-16T00:31:21;4.47;;;2.20;;
69414;SDS011;56608;43.530;-5.652;2022-10-16T00:32:24;6.10;;;2.40;;
69414;SDS011;56608;43.530;-5.652;2022-10-16T00:33:25;7.72;;;2.90;;
69414;SDS011;56608;43.530;-5.652;2022-10-16T00:34:26;6.93;;;2.20;;
69414;SDS011;56608;43.530;-5.652;2022-10-16T00:35:30;5.25;;;2.45;;
69414;SDS011;56608;43.530;-5.652;2022-10-16T00:36:31;5.85;;;2.45;;
69414;SDS011;56608;43.530;-5.652;2022-10-16T00:37:33;4.70;;;2.50;;
69414;SDS011;56608;43.530;-5.652;2022-10-16T00:38:34;5.93;;;2.35;;
69414;SDS011;56608;43.530;-5.652;2022-10-16T00:39:35;3.80;;;2.60;;
69414;SDS011;56608;43.530;-5.652;2022-10-16T00:40:37;5.65;;;2.70;;
69414;SDS011;56608;43.530;-5.652;2022-10-16T00:42:40;5.95;;;3.10;;
69414;SDS011;56608;43.530;-5.652;2022-10-16T00:44:57;5.50;;;3.50;;
69414;SDS011;56608;43.530;-5.652;2022-10-16T00:45:59;10.02;;;3.80;;
69414;SDS011;56608;43.530;-5.652;2022-10-16T00:47:01;9.35;;;3.75;;
69414;SDS011;56608;43.530;-5.652;2022-10-16T00:48:02;7.55;;;3.20;;
69414;SDS011;56608;43.530;-5.652;2022-10-16T00:50:28;8.48;;;3.70;;
69414;SDS011;56608;43.530;-5.652;2022-10-16T00:51:34;10.90;;;4.70;;
69414;SDS011;56608;43.530;-5.652;2022-10-16T00:52:54;8.85;;;4.50;;
69414;SDS011;56608;43.530;-5.652;2022-10-16T00:53:57;10.35;;;4.55;;
69414;SDS011;56608;43.530;-5.652;2022-10-16T00:54:57;9.75;;;4.55;;
69414;SDS011;56608;43.530;-5.652;2022-10-16T00:55:59;8.45;;;4.65;;
69414;SDS011;56608;43.530;-5.652;2022-10-16T00:57:01;7.30;;;4.15;;
69414;SDS011;56608;43.530;-5.652;2022-10-16T00:58:05;8.50;;;4.45;;
69414;SDS011;56608;43.530;-5.652;2022-10-16T00:59:12;9.30;;;4.45;;
69414;SDS011;56608;43.530;-5.652;2022-10-16T01:00:34;8.10;;;4.35;;
69414;SDS011;56608;43.530;-5.652;2022-10-16T01:01:36;7.30;;;3.90;;
69414;SDS011;56608;43.530;-5.652;2022-10-16T01:02:37;10.55;;;4.62;;
69414;SDS011;56608;43.530;-5.652;2022-10-16T01:03:39;10.10;;;4.80;;
69414;SDS011;56608;43.530;-5.652;2022-10-16T01:05:44;8.30;;;4.00;;
69414;SDS011;56608;43.530;-5.652;2022-10-16T01:08:39;9.30;;;4.60;;
69414;SDS011;56608;43.530;-5.652;2022-10-16T01:09:51;6.70;;;4.20;;
69414;SDS011;56608;43.530;-5.652;2022-10-16T01:10:57;10.57;;;4.60;;
69414;SDS011;56608;43.530;-5.652;2022-10-16T01:12:04;8.00;;;4.20;;
69414;SDS011;56608;43.530;-5.652;2022-10-16T01:13:18;11.40;;;5.20;;
69414;SDS011;56608;43.530;-5.652;2022-10-16T01:14:28;6.15;;;4.90;;
69414;SDS011;56608;43.530;-5.652;2022-10-16T01:15:52;8.57;;;4.90;;
69414;SDS011;56608;43.530;-5.652;2022-10-16T01:17:12;7.45;;;4.62;;
69414;SDS011;56608;43.530;-5.652;2022-10-16T01:18:18;7.25;;;4.30;;
69414;SDS011;56608;43.530;-5.652;2022-10-16T01:19:26;10.95;;;4.90;;
69414;SDS011;56608;43.530;-5.652;2022-10-16T01:22:15;7.40;;;4.85;;
69414;SDS011;56608;43.530;-5.652;2022-10-16T01:28:04;11.20;;;5.00;;
69414;SDS011;56608;43.530;-5.652;2022-10-16T01:29:14;6.40;;;3.80;;
69414;SDS011;56608;43.530;-5.652;2022-10-16T01:30:21;10.55;;;4.40;;
69414;SDS011;56608;43.530;-5.652;2022-10-16T01:31:29;7.97;;;4.47;;
69414;SDS011;56608;43.530;-5.652;2022-10-16T01:33:40;9.50;;;4.10;;
69414;SDS011;56608;43.530;-5.652;2022-10-16T01:34:52;10.70;;;4.10;;
69414;SDS011;56608;43.530;-5.652;2022-10-16T01:35:59;9.15;;;3.60;;
69414;SDS011;56608;43.530;-5.652;2022-10-16T01:37:15;11.50;;;4.30;;
69414;SDS011;56608;43.530;-5.652;2022-10-16T01:38:29;8.65;;;3.45;;
69414;SDS011;56608;43.530;-5.652;2022-10-16T01:39:32;8.80;;;3.75;;
69414;SDS011;56608;43.530;-5.652;2022-10-16T01:40:39;9.65;;;4.20;;
69414;SDS011;56608;43.530;-5.652;2022-10-16T01:41:46;9.00;;;3.80;;
69414;SDS011;56608;43.530;-5.652;2022-10-16T01:42:59;8.70;;;3.80;;
69414;SDS011;56608;43.530;-5.652;2022-10-16T01:44:04;7.30;;;3.80;;
69414;SDS011;56608;43.530;-5.652;2022-10-16T01:45:09;7.75;;;3.75;;
69414;SDS011;56608;43.530;-5.652;2022-10-16T01:46:15;9.15;;;3.80;;
69414;SDS011;56608;43.530;-5.652;2022-10-16T01:47:19;9.35;;;4.05;;
69414;SDS011;56608;43.530;-5.652;2022-10-16T01:48:25;6.05;;;3.70;;
69414;SDS011;56608;43.530;-5.652;2022-10-16T01:49:27;12.45;;;4.20;;
69414;SDS011;56608;43.530;-5.652;2022-10-16T01:50:33;6.20;;;3.80;;
69414;SDS011;56608;43.530;-5.652;2022-10-16T01:51:38;7.95;;;3.60;;
69414;SDS011;56608;43.530;-5.652;2022-10-16T01:52:41;6.50;;;3.95;;
69414;SDS011;56608;43.530;-5.652;2022-10-16T01:53:47;10.50;;;4.10;;
69414;SDS011;56608;43.530;-5.652;2022-10-16T01:54:52;6.20;;;3.90;;
69414;SDS011;56608;43.530;-5.652;2022-10-16T01:55:56;6.30;;;3.50;;
69414;SDS011;56608;43.530;-5.652;2022-10-16T01:57:00;5.15;;;3.50;;
69414;SDS011;56608;43.530;-5.652;2022-10-16T01:58:01;10.90;;;3.55;;
69414;SDS011;56608;43.530;-5.652;2022-10-16T01:59:07;6.25;;;3.80;;
69414;SDS011;56608;43.530;-5.652;2022-10-16T02:00:13;8.95;;;3.80;;
69414;SDS011;56608;43.530;-5.652;2022-10-16T02:01:17;7.50;;;3.40;;
69414;SDS011;56608;43.530;-5.652;2022-10-16T02:02:22;9.45;;;4.30;;
69414;SDS011;56608;43.530;-5.652;2022-10-16T02:04:30;8.90;;;4.15;;
69414;SDS011;56608;43.530;-5.652;2022-10-16T02:05:41;10.20;;;4.20;;
69414;SDS011;56608;43.530;-5.652;2022-10-16T02:06:48;11.05;;;4.95;;
69414;SDS011;56608;43.530;-5.652;2022-10-16T02:07:49;9.00;;;4.30;;
69414;SDS011;56608;43.530;-5.652;2022-10-16T02:09:54;6.80;;;4.20;;
69414;SDS011;56608;43.530;-5.652;2022-10-16T02:10:56;5.90;;;3.90;;
69414;SDS011;56608;43.530;-5.652;2022-10-16T02:11:59;4.85;;;4.00;;
69414;SDS011;56608;43.530;-5.652;2022-10-16T02:13:15;7.85;;;3.70;;
69414;SDS011;56608;43.530;-5.652;2022-10-16T02:14:19;7.80;;;4.40;;
69414;SDS011;56608;43.530;-5.652;2022-10-16T02:15:25;8.00;;;4.30;;
69414;SDS011;56608;43.530;-5.652;2022-10-16T02:16:35;5.13;;;3.50;;
69414;SDS011;56608;43.530;-5.652;2022-10-16T02:17:41;8.75;;;4.50;;
69414;SDS011;56608;43.530;-5.652;2022-10-16T02:18:43;7.28;;;3.90;;
69414;SDS011;56608;43.530;-5.652;2022-10-16T02:19:48;5.70;;;4.10;;
69414;SDS011;56608;43.530;-5.652;2022-10-16T02:20:59;9.05;;;4.60;;
69414;SDS011;56608;43.530;-5.652;2022-10-16T02:22:03;6.25;;;3.85;;
69414;SDS011;56608;43.530;-5.652;2022-10-16T02:23:06;7.70;;;4.15;;
69414;SDS011;56608;43.530;-5.652;2022-10-16T02:25:30;9.05;;;4.30;;
69414;SDS011;56608;43.530;-5.652;2022-10-16T02:27:41;8.20;;;4.20;;
69414;SDS011;56608;43.530;-5.652;2022-10-16T02:28:52;7.82;;;4.30;;
69414;SDS011;56608;43.530;-5.652;2022-10-16T02:29:59;8.05;;;4.20;;
69414;SDS011;56608;43.530;-5.652;2022-10-16T02:31:16;6.20;;;4.00;;
69414;SDS011;56608;43.530;-5.652;2022-10-16T02:32:23;5.70;;;4.15;;
69414;SDS011;56608;43.530;-5.652;2022-10-16T02:33:28;6.90;;;4.10;;
69414;SDS011;56608;43.530;-5.652;2022-10-16T02:34:34;5.85;;;3.90;;
69414;SDS011;56608;43.530;-5.652;2022-10-16T02:35:37;6.65;;;3.60;;
69414;SDS011;56608;43.530;-5.652;2022-10-16T02:36:39;5.10;;;3.80;;
69414;SDS011;56608;43.530;-5.652;2022-10-16T02:37:42;7.70;;;4.50;;
69414;SDS011;56608;43.530;-5.652;2022-10-16T02:39:45;8.95;;;3.97;;
69414;SDS011;56608;43.530;-5.652;2022-10-16T02:40:46;7.20;;;3.70;;
69414;SDS011;56608;43.530;-5.652;2022-10-16T02:42:50;5.70;;;3.37;;
69414;SDS011;56608;43.530;-5.652;2022-10-16T02:43:52;8.30;;;3.65;;
69414;SDS011;56608;43.530;-5.652;2022-10-16T02:44:55;6.15;;;3.60;;
69414;SDS011;56608;43.530;-5.652;2022-10-16T02:45:57;7.28;;;3.65;;
69414;SDS011;56608;43.530;-5.652;2022-10-16T02:47:00;7.40;;;3.70;;
69414;SDS011;56608;43.530;-5.652;2022-10-16T02:48:01;7.32;;;3.80;;
69414;SDS011;56608;43.530;-5.652;2022-10-16T02:50:04;5.03;;;3.20;;
69414;SDS011;56608;43.530;-5.652;2022-10-16T02:52:06;6.50;;;3.45;;
69414;SDS011;56608;43.530;-5.652;2022-10-16T02:53:08;7.65;;;3.70;;
69414;SDS011;56608;43.530;-5.652;2022-10-16T02:54:09;6.95;;;3.97;;
69414;SDS011;56608;43.530;-5.652;2022-10-16T02:55:11;6.75;;;4.25;;
69414;SDS011;56608;43.530;-5.652;2022-10-16T02:56:13;6.15;;;3.50;;
69414;SDS011;56608;43.530;-5.652;2022-10-16T02:57:14;5.20;;;3.97;;
69414;SDS011;56608;43.530;-5.652;2022-10-16T02:58:16;7.87;;;3.67;;
69414;SDS011;56608;43.530;-5.652;2022-10-16T02:59:17;6.37;;;3.33;;
69414;SDS011;56608;43.530;-5.652;2022-10-16T03:00:20;4.90;;;3.60;;
69414;SDS011;56608;43.530;-5.652;2022-10-16T03:01:22;4.93;;;3.70;;
69414;SDS011;56608;43.530;-5.652;2022-10-16T03:02:24;5.60;;;4.15;;
69414;SDS011;56608;43.530;-5.652;2022-10-16T03:03:28;8.45;;;4.10;;
69414;SDS011;56608;43.530;-5.652;2022-10-16T03:04:29;8.73;;;4.10;;
69414;SDS011;56608;43.530;-5.652;2022-10-16T03:05:31;5.65;;;3.70;;
69414;SDS011;56608;43.530;-5.652;2022-10-16T03:06:32;8.70;;;4.00;;
69414;SDS011;56608;43.530;-5.652;2022-10-16T03:07:36;4.55;;;3.60;;
69414;SDS011;56608;43.530;-5.652;2022-10-16T03:08:36;6.90;;;4.00;;
69414;SDS011;56608;43.530;-5.652;2022-10-16T03:09:38;7.00;;;4.05;;
69414;SDS011;56608;43.530;-5.652;2022-10-16T03:10:40;6.40;;;3.92;;
69414;SDS011;56608;43.530;-5.652;2022-10-16T03:11:41;8.40;;;4.00;;
69414;SDS011;56608;43.530;-5.652;2022-10-16T03:12:44;7.25;;;4.30;;
69414;SDS011;56608;43.530;-5.652;2022-10-16T03:13:46;5.35;;;3.67;;
69414;SDS011;56608;43.530;-5.652;2022-10-16T03:14:47;7.12;;;3.67;;
69414;SDS011;56608;43.530;-5.652;2022-10-16T03:15:48;7.70;;;3.90;;
69414;SDS011;56608;43.530;-5.652;2022-10-16T03:16:50;5.55;;;3.60;;
69414;SDS011;56608;43.530;-5.652;2022-10-16T03:17:51;7.07;;;4.03;;
69414;SDS011;56608;43.530;-5.652;2022-10-16T03:18:55;6.45;;;4.05;;
69414;SDS011;56608;43.530;-5.652;2022-10-16T03:19:56;6.35;;;3.60;;
69414;SDS011;56608;43.530;-5.652;2022-10-16T03:20:57;9.63;;;3.97;;
69414;SDS011;56608;43.530;-5.652;2022-10-16T03:21:59;6.10;;;4.00;;
69414;SDS011;56608;43.530;-5.652;2022-10-16T03:23:02;9.35;;;3.80;;
69414;SDS011;56608;43.530;-5.652;2022-10-16T03:24:04;8.35;;;3.75;;
69414;SDS011;56608;43.530;-5.652;2022-10-16T03:26:06;7.72;;;3.95;;
69414;SDS011;56608;43.530;-5.652;2022-10-16T03:27:08;8.70;;;4.60;;
69414;SDS011;56608;43.530;-5.652;2022-10-16T03:28:09;8.65;;;4.22;;
69414;SDS011;56608;43.530;-5.652;2022-10-16T03:29:12;8.75;;;4.20;;
69414;SDS011;56608;43.530;-5.652;2022-10-16T03:30:14;9.27;;;4.20;;
69414;SDS011;56608;43.530;-5.652;2022-10-16T03:31:16;8.15;;;4.10;;
69414;SDS011;56608;43.530;-5.652;2022-10-16T03:32:17;8.27;;;3.80;;
69414;SDS011;56608;43.530;-5.652;2022-10-16T03:33:20;8.63;;;5.00;;
69414;SDS011;56608;43.530;-5.652;2022-10-16T03:34:22;6.67;;;4.60;;
69414;SDS011;56608;43.530;-5.652;2022-10-16T03:35:24;5.40;;;4.70;;
69414;SDS011;56608;43.530;-5.652;2022-10-16T03:36:28;6.30;;;4.60;;
69414;SDS011;56608;43.530;-5.652;2022-10-16T03:37:29;7.80;;;4.45;;
69414;SDS011;56608;43.530;-5.652;2022-10-16T03:38:31;10.20;;;4.70;;
69414;SDS011;56608;43.530;-5.652;2022-10-16T03:39:34;7.30;;;4.40;;
69414;SDS011;56608;43.530;-5.652;2022-10-16T03:40:35;5.82;;;3.85;;
69414;SDS011;56608;43.530;-5.652;2022-10-16T03:41:37;7.80;;;4.68;;
69414;SDS011;56608;43.530;-5.652;2022-10-16T03:42:41;6.47;;;4.35;;
69414;SDS011;56608;43.530;-5.652;2022-10-16T03:43:44;8.20;;;4.90;;
69414;SDS011;56608;43.530;-5.652;2022-10-16T03:44:45;8.95;;;4.50;;
69414;SDS011;56608;43.530;-5.652;2022-10-16T03:45:47;6.55;;;4.45;;
69414;SDS011;56608;43.530;-5.652;2022-10-16T03:46:53;12.45;;;4.65;;
69414;SDS011;56608;43.530;-5.652;2022-10-16T03:47:53;10.95;;;4.90;;
69414;SDS011;56608;43.530;-5.652;2022-10-16T03:48:55;6.35;;;4.05;;
69414;SDS011;56608;43.530;-5.652;2022-10-16T03:49:57;8.10;;;4.20;;
69414;SDS011;56608;43.530;-5.652;2022-10-16T03:50:58;10.10;;;4.47;;
69414;SDS011;56608;43.530;-5.652;2022-10-16T03:52:02;7.55;;;3.90;;
69414;SDS011;56608;43.530;-5.652;2022-10-16T03:53:03;7.85;;;4.30;;
69414;SDS011;56608;43.530;-5.652;2022-10-16T03:54:04;5.43;;;4.00;;
69414;SDS011;56608;43.530;-5.652;2022-10-16T03:55:06;7.25;;;4.43;;
69414;SDS011;56608;43.530;-5.652;2022-10-16T03:56:08;8.55;;;4.50;;
69414;SDS011;56608;43.530;-5.652;2022-10-16T03:57:10;9.43;;;4.50;;
69414;SDS011;56608;43.530;-5.652;2022-10-16T03:58:13;6.30;;;3.95;;
69414;SDS011;56608;43.530;-5.652;2022-10-16T03:59:15;9.32;;;4.37;;
69414;SDS011;56608;43.530;-5.652;2022-10-16T04:00:16;7.60;;;4.10;;
69414;SDS011;56608;43.530;-5.652;2022-10-16T04:01:17;8.85;;;4.20;;
69414;SDS011;56608;43.530;-5.652;2022-10-16T04:02:19;5.80;;;3.62;;
69414;SDS011;56608;43.530;-5.652;2022-10-16T04:03:21;5.05;;;3.53;;
69414;SDS011;56608;43.530;-5.652;2022-10-16T04:04:23;5.70;;;4.00;;
69414;SDS011;56608;43.530;-5.652;2022-10-16T04:05:26;6.90;;;4.00;;
69414;SDS011;56608;43.530;-5.652;2022-10-16T04:07:29;10.00;;;4.65;;
69414;SDS011;56608;43.530;-5.652;2022-10-16T04:08:31;12.00;;;3.90;;
69414;SDS011;56608;43.530;-5.652;2022-10-16T04:09:35;6.30;;;3.60;;
69414;SDS011;56608;43.530;-5.652;2022-10-16T04:10:37;5.50;;;3.65;;
69414;SDS011;56608;43.530;-5.652;2022-10-16T04:11:38;8.40;;;3.90;;
69414;SDS011;56608;43.530;-5.652;2022-10-16T04:12:40;7.30;;;4.00;;
69414;SDS011;56608;43.530;-5.652;2022-10-16T04:13:41;7.68;;;4.10;;
69414;SDS011;56608;43.530;-5.652;2022-10-16T04:14:43;7.00;;;3.60;;
69414;SDS011;56608;43.530;-5.652;2022-10-16T04:15:44;5.07;;;3.85;;
69414;SDS011;56608;43.530;-5.652;2022-10-16T04:16:46;6.65;;;3.90;;
69414;SDS011;56608;43.530;-5.652;2022-10-16T04:17:48;8.25;;;4.22;;
69414;SDS011;56608;43.530;-5.652;2022-10-16T04:19:49;11.25;;;4.05;;
69414;SDS011;56608;43.530;-5.652;2022-10-16T04:20:53;7.80;;;3.75;;
69414;SDS011;56608;43.530;-5.652;2022-10-16T04:21:55;6.80;;;4.40;;
69414;SDS011;56608;43.530;-5.652;2022-10-16T04:22:56;7.82;;;4.40;;
69414;SDS011;56608;43.530;-5.652;2022-10-16T04:24:00;5.30;;;3.80;;
69414;SDS011;56608;43.530;-5.652;2022-10-16T04:25:01;6.00;;;4.00;;
69414;SDS011;56608;43.530;-5.652;2022-10-16T04:26:03;8.65;;;3.85;;
69414;SDS011;56608;43.530;-5.652;2022-10-16T04:27:04;6.47;;;4.12;;
69414;SDS011;56608;43.530;-5.652;2022-10-16T04:28:06;9.18;;;4.53;;
69414;SDS011;56608;43.530;-5.652;2022-10-16T04:29:06;6.55;;;4.10;;
69414;SDS011;56608;43.530;-5.652;2022-10-16T04:30:08;5.90;;;3.97;;
69414;SDS011;56608;43.530;-5.652;2022-10-16T04:32:11;6.60;;;3.90;;
69414;SDS011;56608;43.530;-5.652;2022-10-16T04:33:12;9.00;;;3.95;;
69414;SDS011;56608;43.530;-5.652;2022-10-16T04:35:15;9.02;;;4.03;;
69414;SDS011;56608;43.530;-5.652;2022-10-16T04:36:20;5.50;;;3.90;;
69414;SDS011;56608;43.530;-5.652;2022-10-16T04:37:25;8.02;;;4.07;;
69414;SDS011;56608;43.530;-5.652;2022-10-16T04:38:27;6.45;;;4.10;;
69414;SDS011;56608;43.530;-5.652;2022-10-16T04:39:30;6.05;;;4.10;;
69414;SDS011;56608;43.530;-5.652;2022-10-16T04:40:32;9.40;;;4.05;;
69414;SDS011;56608;43.530;-5.652;2022-10-16T04:41:32;6.80;;;4.20;;
69414;SDS011;56608;43.530;-5.652;2022-10-16T04:42:34;5.70;;;4.05;;
69414;SDS011;56608;43.530;-5.652;2022-10-16T04:43:36;8.60;;;3.90;;
69414;SDS011;56608;43.530;-5.652;2022-10-16T04:44:39;6.05;;;4.10;;
69414;SDS011;56608;43.530;-5.652;2022-10-16T04:45:41;5.62;;;3.55;;
69414;SDS011;56608;43.530;-5.652;2022-10-16T04:46:42;7.97;;;3.70;;
69414;SDS011;56608;43.530;-5.652;2022-10-16T04:47:45;7.90;;;3.70;;
69414;SDS011;56608;43.530;-5.652;2022-10-16T04:48:46;6.93;;;3.75;;
69414;SDS011;56608;43.530;-5.652;2022-10-16T04:49:48;6.12;;;4.03;;
69414;SDS011;56608;43.530;-5.652;2022-10-16T04:50:51;6.50;;;4.20;;
69414;SDS011;56608;43.530;-5.652;2022-10-16T04:51:52;6.75;;;4.03;;
69414;SDS011;56608;43.530;-5.652;2022-10-16T04:52:54;6.43;;;4.30;;
69414;SDS011;56608;43.530;-5.652;2022-10-16T04:53:55;6.53;;;4.28;;
69414;SDS011;56608;43.530;-5.652;2022-10-16T04:54:57;6.28;;;4.30;;
69414;SDS011;56608;43.530;-5.652;2022-10-16T04:56:03;8.75;;;4.60;;
69414;SDS011;56608;43.530;-5.652;2022-10-16T04:57:05;7.30;;;4.45;;
69414;SDS011;56608;43.530;-5.652;2022-10-16T04:58:10;10.55;;;4.50;;
69414;SDS011;56608;43.530;-5.652;2022-10-16T04:59:12;5.70;;;4.35;;
69414;SDS011;56608;43.530;-5.652;2022-10-16T05:00:17;9.00;;;4.70;;
69414;SDS011;56608;43.530;-5.652;2022-10-16T05:01:19;5.82;;;4.45;;
69414;SDS011;56608;43.530;-5.652;2022-10-16T05:02:20;8.45;;;4.55;;
69414;SDS011;56608;43.530;-5.652;2022-10-16T05:03:22;8.43;;;5.07;;
69414;SDS011;56608;43.530;-5.652;2022-10-16T05:04:23;8.25;;;5.07;;
69414;SDS011;56608;43.530;-5.652;2022-10-16T05:05:25;8.50;;;5.10;;
69414;SDS011;56608;43.530;-5.652;2022-10-16T05:06:26;11.45;;;4.87;;
69414;SDS011;56608;43.530;-5.652;2022-10-16T05:07:27;10.07;;;5.40;;
69414;SDS011;56608;43.530;-5.652;2022-10-16T05:09:30;9.50;;;5.00;;
69414;SDS011;56608;43.530;-5.652;2022-10-16T05:10:32;12.45;;;5.25;;
69414;SDS011;56608;43.530;-5.652;2022-10-16T05:11:35;7.65;;;5.40;;
69414;SDS011;56608;43.530;-5.652;2022-10-16T05:12:37;8.50;;;5.43;;
69414;SDS011;56608;43.530;-5.652;2022-10-16T05:13:40;10.35;;;5.45;;
69414;SDS011;56608;43.530;-5.652;2022-10-16T05:14:41;11.38;;;5.68;;
69414;SDS011;56608;43.530;-5.652;2022-10-16T05:15:46;10.93;;;5.15;;
69414;SDS011;56608;43.530;-5.652;2022-10-16T05:16:49;10.15;;;5.00;;
69414;SDS011;56608;43.530;-5.652;2022-10-16T05:17:52;9.45;;;5.50;;
69414;SDS011;56608;43.530;-5.652;2022-10-16T05:18:54;9.20;;;5.30;;
69414;SDS011;56608;43.530;-5.652;2022-10-16T05:19:56;10.65;;;5.28;;
69414;SDS011;56608;43.530;-5.652;2022-10-16T05:20:57;13.82;;;6.03;;
69414;SDS011;56608;43.530;-5.652;2022-10-16T05:22:00;10.40;;;5.65;;
69414;SDS011;56608;43.530;-5.652;2022-10-16T05:23:01;7.30;;;5.40;;
69414;SDS011;56608;43.530;-5.652;2022-10-16T05:24:03;7.95;;;5.25;;
69414;SDS011;56608;43.530;-5.652;2022-10-16T05:25:05;9.77;;;5.35;;
69414;SDS011;56608;43.530;-5.652;2022-10-16T05:26:06;9.52;;;5.65;;
69414;SDS011;56608;43.530;-5.652;2022-10-16T05:27:08;8.55;;;5.20;;
69414;SDS011;56608;43.530;-5.652;2022-10-16T05:28:11;9.80;;;5.80;;
69414;SDS011;56608;43.530;-5.652;2022-10-16T05:29:13;10.45;;;5.22;;
69414;SDS011;56608;43.530;-5.652;2022-10-16T05:30:15;9.30;;;5.50;;
69414;SDS011;56608;43.530;-5.652;2022-10-16T05:31:19;9.40;;;5.70;;
69414;SDS011;56608;43.530;-5.652;2022-10-16T05:32:20;9.88;;;5.25;;
69414;SDS011;56608;43.530;-5.652;2022-10-16T05:33:22;7.62;;;4.82;;
69414;SDS011;56608;43.530;-5.652;2022-10-16T05:34:25;8.15;;;4.50;;
69414;SDS011;56608;43.530;-5.652;2022-10-16T05:35:26;8.60;;;4.93;;
69414;SDS011;56608;43.530;-5.652;2022-10-16T05:36:28;9.05;;;5.18;;
69414;SDS011;56608;43.530;-5.652;2022-10-16T05:37:28;8.30;;;5.25;;
69414;SDS011;56608;43.530;-5.652;2022-10-16T05:38:32;7.80;;;4.97;;
69414;SDS011;56608;43.530;-5.652;2022-10-16T05:39:33;8.65;;;4.82;;
69414;SDS011;56608;43.530;-5.652;2022-10-16T05:40:34;8.60;;;4.90;;
69414;SDS011;56608;43.530;-5.652;2022-10-16T05:41:36;9.47;;;5.17;;
69414;SDS011;56608;43.530;-5.652;2022-10-16T05:42:38;8.70;;;4.90;;
69414;SDS011;56608;43.530;-5.652;2022-10-16T05:43:39;10.00;;;5.37;;
69414;SDS011;56608;43.530;-5.652;2022-10-16T05:44:41;10.93;;;4.97;;
69414;SDS011;56608;43.530;-5.652;2022-10-16T05:45:42;7.43;;;4.70;;
69414;SDS011;56608;43.530;-5.652;2022-10-16T05:46:45;10.47;;;5.13;;
69414;SDS011;56608;43.530;-5.652;2022-10-16T05:47:47;6.65;;;4.60;;
69414;SDS011;56608;43.530;-5.652;2022-10-16T05:48:51;8.98;;;4.30;;
69414;SDS011;56608;43.530;-5.652;2022-10-16T05:49:53;7.85;;;3.80;;
69414;SDS011;56608;43.530;-5.652;2022-10-16T05:50:57;7.70;;;4.25;;
69414;SDS011;56608;43.530;-5.652;2022-10-16T05:52:00;7.20;;;4.40;;
69414;SDS011;56608;43.530;-5.652;2022-10-16T05:53:01;4.97;;;4.20;;
69414;SDS011;56608;43.530;-5.652;2022-10-16T05:54:03;5.90;;;4.20;;
69414;SDS011;56608;43.530;-5.652;2022-10-16T05:55:04;7.10;;;3.87;;
69414;SDS011;56608;43.530;-5.652;2022-10-16T05:56:07;7.78;;;3.97;;
69414;SDS011;56608;43.530;-5.652;2022-10-16T05:57:13;7.30;;;4.30;;
69414;SDS011;56608;43.530;-5.652;2022-10-16T05:58:15;6.70;;;4.20;;
69414;SDS011;56608;43.530;-5.652;2022-10-16T05:59:16;5.70;;;4.00;;
69414;SDS011;56608;43.530;-5.652;2022-10-16T06:00:17;5.78;;;4.20;;
69414;SDS011;56608;43.530;-5.652;2022-10-16T06:01:19;9.23;;;5.55;;
69414;SDS011;56608;43.530;-5.652;2022-10-16T06:02:25;11.15;;;6.10;;
69414;SDS011;56608;43.530;-5.652;2022-10-16T06:03:26;8.90;;;5.50;;
69414;SDS011;56608;43.530;-5.652;2022-10-16T06:04:28;8.07;;;5.25;;
69414;SDS011;56608;43.530;-5.652;2022-10-16T06:05:29;7.82;;;6.05;;
69414;SDS011;56608;43.530;-5.652;2022-10-16T06:06:30;12.25;;;6.15;;
69414;SDS011;56608;43.530;-5.652;2022-10-16T06:07:34;10.25;;;6.30;;
69414;SDS011;56608;43.530;-5.652;2022-10-16T06:08:40;8.45;;;5.85;;
69414;SDS011;56608;43.530;-5.652;2022-10-16T06:09:42;9.05;;;6.00;;
69414;SDS011;56608;43.530;-5.652;2022-10-16T06:10:44;7.00;;;5.75;;
69414;SDS011;56608;43.530;-5.652;2022-10-16T06:11:46;9.63;;;6.15;;
69414;SDS011;56608;43.530;-5.652;2022-10-16T06:12:49;11.60;;;6.93;;
69414;SDS011;56608;43.530;-5.652;2022-10-16T06:13:51;11.98;;;6.70;;
69414;SDS011;56608;43.530;-5.652;2022-10-16T06:14:54;9.60;;;6.80;;
69414;SDS011;56608;43.530;-5.652;2022-10-16T06:15:57;8.60;;;6.15;;
69414;SDS011;56608;43.530;-5.652;2022-10-16T06:16:59;11.43;;;6.40;;
69414;SDS011;56608;43.530;-5.652;2022-10-16T06:17:59;9.35;;;6.75;;
69414;SDS011;56608;43.530;-5.652;2022-10-16T06:19:02;11.03;;;7.10;;
69414;SDS011;56608;43.530;-5.652;2022-10-16T06:20:07;9.48;;;6.18;;
69414;SDS011;56608;43.530;-5.652;2022-10-16T06:22:13;9.93;;;5.33;;
69414;SDS011;56608;43.530;-5.652;2022-10-16T06:23:14;7.07;;;4.75;;
69414;SDS011;56608;43.530;-5.652;2022-10-16T06:24:16;8.70;;;5.00;;
69414;SDS011;56608;43.530;-5.652;2022-10-16T06:25:16;6.70;;;4.70;;
69414;SDS011;56608;43.530;-5.652;2022-10-16T06:26:19;6.45;;;5.60;;
69414;SDS011;56608;43.530;-5.652;2022-10-16T06:27:22;7.25;;;4.70;;
69414;SDS011;56608;43.530;-5.652;2022-10-16T06:28:26;6.00;;;4.50;;
69414;SDS011;56608;43.530;-5.652;2022-10-16T06:29:27;8.73;;;4.75;;
69414;SDS011;56608;43.530;-5.652;2022-10-16T06:30:29;8.02;;;5.30;;
69414;SDS011;56608;43.530;-5.652;2022-10-16T06:31:30;10.27;;;5.40;;
69414;SDS011;56608;43.530;-5.652;2022-10-16T06:32:34;9.60;;;5.25;;
69414;SDS011;56608;43.530;-5.652;2022-10-16T06:33:36;7.47;;;4.20;;
69414;SDS011;56608;43.530;-5.652;2022-10-16T06:34:38;6.75;;;4.40;;
69414;SDS011;56608;43.530;-5.652;2022-10-16T06:35:41;7.70;;;4.50;;
69414;SDS011;56608;43.530;-5.652;2022-10-16T06:36:44;6.25;;;4.50;;
69414;SDS011;56608;43.530;-5.652;2022-10-16T06:37:46;7.35;;;4.43;;
69414;SDS011;56608;43.530;-5.652;2022-10-16T06:38:47;10.43;;;7.00;;
69414;SDS011;56608;43.530;-5.652;2022-10-16T06:39:48;10.55;;;7.97;;
69414;SDS011;56608;43.530;-5.652;2022-10-16T06:40:50;11.35;;;5.32;;
69414;SDS011;56608;43.530;-5.652;2022-10-16T06:41:51;8.80;;;6.18;;
69414;SDS011;56608;43.530;-5.652;2022-10-16T06:42:54;15.05;;;9.60;;
69414;SDS011;56608;43.530;-5.652;2022-10-16T06:43:58;9.90;;;5.30;;